Time;durP1;ratioP1;P1;durP2;ratioP2;P2;SDS_P1;SDS_P2;PMS_P1;PMS_P2;Temp;Humidity;BMP_temperature;BMP_pressure;BME280_temperature;BME280_humidity;BME280_pressure;Samples;Min_cycle;Max_cycle;Signal;HPM_P1;HPM_P2
2024/04/17 00:02:06;;;;;;;;;;;;;;;15.98;53.10;99406.88;5288894;27;1252;-44
2024/04/17 00:04:31;;;;;;;;;;;;;;;16.19;53.69;99403.22;5302602;27;1193;-45
2024/04/17 00:06:57;;;;;;;;;;;;;;;17.46;53.00;99410.81;5302136;27;1337;-44
2024/04/17 00:09:22;;;;;;;;;;;;;;;17.05;53.48;99413.00;5301933;27;1072;-44
2024/04/17 00:11:48;;;;;;;;;;;;;;;16.66;53.75;99406.88;5321628;27;1822;-45
2024/04/17 00:14:13;;;;;;;;;;;;;;;16.48;53.67;99409.44;5322431;27;1339;-45
2024/04/17 00:16:39;;;;;;;;;;;;;;;16.32;53.48;99410.03;5299234;27;1324;-46
2024/04/17 00:19:04;;;;;;;;;;;;;;;16.19;53.55;99399.72;5314612;27;1082;-45
2024/04/17 00:21:30;;;;;;;;;;;;;;;16.11;53.36;99403.97;5297223;27;1212;-45
2024/04/17 00:23:55;;;;;;;;;;;;;;;16.12;53.06;99410.09;5288198;27;1181;-44
2024/04/17 00:26:21;;;;;;;;;;;;;;;16.03;53.25;99402.00;5310612;27;1368;-44
2024/04/17 00:28:46;;;;;;;;;;;;;;;17.19;53.58;99409.00;5301969;27;1511;-42
2024/04/17 00:31:12;;;;;;;;;;;;;;;17.24;53.13;99399.63;5300660;27;1287;-47
2024/04/17 00:33:37;;;;;;;;;;;;;;;16.78;53.77;99396.91;5288614;27;1827;-43
2024/04/17 00:36:03;;;;;;;;;;;;;;;16.49;53.76;99392.53;5310515;27;1236;-43
2024/04/17 00:38:28;;;;;;;;;;;;;;;16.40;53.67;99378.31;5288248;27;1170;-45
2024/04/17 00:40:54;;;;;;;;;;;;;;;16.25;53.28;99369.97;5310857;27;1184;-45
2024/04/17 00:43:19;;;;;;;;;;;;;;;16.18;53.47;99353.81;5305577;27;1163;-43
2024/04/17 00:45:45;;;;;;;;;;;;;;;16.10;53.08;99343.91;5301999;27;1219;-45
2024/04/17 00:48:11;;;;;;;;;;;;;;;16.11;53.07;99358.00;5268700;27;1134;-43
2024/04/17 00:50:37;;;;;;;;;;;;;;;16.03;52.90;99350.78;5302974;27;1308;-46
2024/04/17 00:53:03;;;;;;;;;;;;;;;16.84;53.88;99355.63;5284613;27;1875;-45
2024/04/17 00:55:28;;;;;;;;;;;;;;;17.53;52.72;99351.69;5314706;27;1084;-44
2024/04/17 00:57:53;;;;;;;;;;;;;;;16.83;53.71;99351.31;5295222;27;1705;-44
2024/04/17 01:00:19;;;;;;;;;;;;;;;16.58;53.61;99324.47;5279374;27;1717;-43
2024/04/17 01:02:44;;;;;;;;;;;;;;;16.45;53.77;99354.00;5304881;27;1494;-44
2024/04/17 01:05:10;;;;;;;;;;;;;;;16.28;53.55;99391.75;5287346;27;1525;-42
2024/04/17 01:07:35;;;;;;;;;;;;;;;16.23;53.31;99391.34;5302690;27;1833;-46
2024/04/17 01:10:01;;;;;;;;;;;;;;;16.15;53.17;99362.88;5282920;27;1177;-44
2024/04/17 01:12:26;;;;;;;;;;;;;;;16.17;53.88;99365.38;5293969;27;1861;-42
2024/04/17 01:14:52;;;;;;;;;;;;;;;17.49;53.34;99357.31;5296082;27;1113;-41
2024/04/17 01:17:17;;;;;;;;;;;;;;;17.14;53.36;99364.28;5294002;27;1275;-43
2024/04/17 01:19:43;;;;;;;;;;;;;;;16.69;53.77;99348.16;5317018;27;997;-43
2024/04/17 01:22:08;;;;;;;;;;;;;;;16.54;53.57;99347.81;5283995;27;1411;-42
2024/04/17 01:24:34;;;;;;;;;;;;;;;16.36;53.59;99337.13;5305781;27;1666;-42
2024/04/17 01:26:59;;;;;;;;;;;;;;;16.25;53.51;99351.41;5317381;27;1334;-42
2024/04/17 01:29:25;;;;;;;;;;;;;;;16.17;53.42;99360.09;5297596;27;1418;-41
2024/04/17 01:31:50;;;;;;;;;;;;;;;16.14;53.36;99352.41;5297653;27;1823;-41
2024/04/17 01:34:16;;;;;;;;;;;;;;;16.06;53.16;99323.97;5310077;27;1322;-44
2024/04/17 01:36:41;;;;;;;;;;;;;;;16.79;53.85;99302.13;5285979;27;1128;-45
2024/04/17 01:39:07;;;;;;;;;;;;;;;17.47;52.56;99310.59;5304513;27;1222;-44
2024/04/17 01:41:32;;;;;;;;;;;;;;;16.80;53.79;99317.09;5283929;27;1264;-43
2024/04/17 01:43:58;;;;;;;;;;;;;;;16.67;53.63;99322.72;5305704;27;1313;-46
2024/04/17 01:46:24;;;;;;;;;;;;;;;16.39;53.73;99305.81;5291268;27;1541;-45
2024/04/17 01:48:49;;;;;;;;;;;;;;;16.24;53.67;99297.50;5305920;27;1232;-46
2024/04/17 01:51:15;;;;;;;;;;;;;;;16.21;53.47;99296.97;5293775;27;1168;-45
2024/04/17 01:53:40;;;;;;;;;;;;;;;16.15;53.17;99301.00;5294689;27;2116;-44
2024/04/17 01:56:06;;;;;;;;;;;;;;;16.11;53.05;99297.84;5306771;27;1213;-44
2024/04/17 01:58:31;;;;;;;;;;;;;;;16.05;52.95;99309.00;5295300;27;1173;-44
2024/04/17 02:00:57;;;;;;;;;;;;;;;15.98;53.00;99323.81;5282694;27;1530;-43
2024/04/17 02:03:22;;;;;;;;;;;;;;;17.02;53.57;99310.50;5253098;27;1336;-43
2024/04/17 02:05:48;;;;;;;;;;;;;;;17.45;52.86;99310.75;5292552;27;1315;-44
2024/04/17 02:08:13;;;;;;;;;;;;;;;16.80;53.96;99312.59;5313142;27;1053;-43
2024/04/17 02:10:39;;;;;;;;;;;;;;;16.53;54.01;99307.16;5306783;27;1208;-42
2024/04/17 02:13:04;;;;;;;;;;;;;;;16.40;53.52;99301.34;5304237;27;1823;-42
2024/04/17 02:15:33;;;;;;;;;;;;;;;16.27;53.34;99301.69;5316171;27;1307;-44
2024/04/17 02:17:58;;;;;;;;;;;;;;;16.18;53.42;99305.22;5316456;27;1292;-42
2024/04/17 02:20:24;;;;;;;;;;;;;;;16.08;53.43;99311.38;5297772;27;1175;-44
2024/04/17 02:22:50;;;;;;;;;;;;;;;16.06;53.23;99308.06;5304309;27;1185;-47
2024/04/17 02:25:15;;;;;;;;;;;;;;;16.31;54.18;99302.22;5283406;27;1291;-42
2024/04/17 02:27:41;;;;;;;;;;;;;;;17.53;52.97;99299.38;5282649;27;1173;-42
2024/04/17 02:30:06;;;;;;;;;;;;;;;17.01;53.39;99288.44;5293061;27;1304;-43
2024/04/17 02:32:32;;;;;;;;;;;;;;;16.63;53.93;99280.53;5311456;27;1852;-47
2024/04/17 02:34:57;;;;;;;;;;;;;;;16.46;53.69;99282.19;5283244;27;1264;-47
2024/04/17 02:37:23;;;;;;;;;;;;;;;16.32;53.42;99287.97;5282414;27;1271;-46
2024/04/17 02:39:48;;;;;;;;;;;;;;;16.20;53.35;99287.34;5287196;27;1596;-44
2024/04/17 02:42:14;;;;;;;;;;;;;;;16.15;53.33;99282.44;5296699;27;1212;-45
2024/04/17 02:44:40;;;;;;;;;;;;;;;16.03;53.41;99285.28;5294702;27;1255;-43
2024/04/17 02:47:05;;;;;;;;;;;;;;;16.00;52.99;99282.06;5282272;27;1219;-41
2024/04/17 02:49:31;;;;;;;;;;;;;;;16.25;53.74;99298.31;5289917;27;1292;-42
2024/04/17 02:51:56;;;;;;;;;;;;;;;17.46;53.35;99293.81;5297392;27;1826;-42
2024/04/17 02:54:22;;;;;;;;;;;;;;;17.25;53.27;99292.31;5282126;27;1299;-42
2024/04/17 02:56:47;;;;;;;;;;;;;;;16.76;53.84;99298.78;5307680;27;1396;-41
2024/04/17 02:59:13;;;;;;;;;;;;;;;16.51;54.07;99305.63;5312735;27;1284;-51
2024/04/17 03:01:38;;;;;;;;;;;;;;;16.37;53.64;99301.63;5300971;27;1176;-49
2024/04/17 03:04:04;;;;;;;;;;;;;;;16.26;53.37;99307.97;5281888;27;1299;-51
2024/04/17 03:06:29;;;;;;;;;;;;;;;16.18;53.37;99313.19;5282343;27;1303;-45
2024/04/17 03:08:55;;;;;;;;;;;;;;;16.11;53.07;99303.16;5308102;27;1088;-50
2024/04/17 03:11:20;;;;;;;;;;;;;;;16.04;52.78;99283.47;5315665;27;1181;-52
2024/04/17 03:13:46;;;;;;;;;;;;;;;16.30;54.29;99277.50;5312045;27;1857;-52
2024/04/17 03:16:11;;;;;;;;;;;;;;;17.53;53.22;99275.44;5296296;27;1288;-53
2024/04/17 03:18:37;;;;;;;;;;;;;;;16.98;53.74;99261.31;5290133;27;1208;-57
2024/04/17 03:21:03;;;;;;;;;;;;;;;16.58;53.84;99258.09;5295536;27;1175;-57
2024/04/17 03:23:28;;;;;;;;;;;;;;;16.43;53.86;99258.59;5282557;27;1193;-52
2024/04/17 03:25:57;;;;;;;;;;;;;;;16.28;53.57;99264.38;5281677;27;1163;-50
2024/04/17 03:28:22;;;;;;;;;;;;;;;16.25;53.21;99262.03;5285807;27;1249;-50
2024/04/17 03:30:48;;;;;;;;;;;;;;;16.16;53.14;99252.31;5300522;27;1267;-55
2024/04/17 03:33:13;;;;;;;;;;;;;;;16.04;53.18;99256.94;5286842;27;2473;-52
2024/04/17 03:35:39;;;;;;;;;;;;;;;16.57;54.54;99264.38;5315224;27;1176;-53
2024/04/17 03:38:04;;;;;;;;;;;;;;;17.51;52.88;99264.09;5308778;27;1185;-51
2024/04/17 03:40:30;;;;;;;;;;;;;;;16.85;54.05;99275.78;5281482;27;1197;-51
2024/04/17 03:42:55;;;;;;;;;;;;;;;16.62;53.81;99275.38;5307648;27;1501;-57
2024/04/17 03:45:21;;;;;;;;;;;;;;;16.43;53.82;99281.66;5265493;27;1695;-51
2024/04/17 03:47:47;;;;;;;;;;;;;;;16.27;53.68;99283.09;5301418;27;1737;-51
2024/04/17 03:50:12;;;;;;;;;;;;;;;16.18;53.34;99276.88;5306437;27;1959;-52
2024/04/17 03:52:38;;;;;;;;;;;;;;;16.10;53.32;99269.63;5299103;26;1830;-45
2024/04/17 03:55:03;;;;;;;;;;;;;;;16.06;53.28;99275.38;5301214;27;1610;-42
2024/04/17 03:57:29;;;;;;;;;;;;;;;16.92;54.37;99285.81;5311253;27;1049;-42
2024/04/17 03:59:55;;;;;;;;;;;;;;;17.29;53.47;99302.63;5258840;27;1199;-41
2024/04/17 04:02:20;;;;;;;;;;;;;;;16.80;53.81;99307.28;5295515;27;1259;-42
2024/04/17 04:04:46;;;;;;;;;;;;;;;16.50;54.76;99302.13;5310341;27;1215;-44
2024/04/17 04:07:11;;;;;;;;;;;;;;;16.97;54.08;99284.38;5307810;27;1327;-47
2024/04/17 04:09:37;;;;;;;;;;;;;;;16.07;54.08;99287.63;5300355;27;1282;-42
2024/04/17 04:12:02;;;;;;;;;;;;;;;15.83;52.26;99304.88;5296134;27;1834;-39
2024/04/17 04:14:28;;;;;;;;;;;;;;;15.64;51.01;99306.56;5285797;27;1129;-40
2024/04/17 04:16:53;;;;;;;;;;;;;;;15.58;50.19;99307.94;5303332;27;1256;-45
2024/04/17 04:19:20;;;;;;;;;;;;;;;15.50;49.65;99308.66;5303264;27;1169;-46
2024/04/17 04:21:46;;;;;;;;;;;;;;;16.44;52.48;99301.88;5312176;27;1241;-46
2024/04/17 04:24:11;;;;;;;;;;;;;;;15.99;51.73;99301.63;5314820;27;1330;-43
2024/04/17 04:26:37;;;;;;;;;;;;;;;15.82;50.40;99316.44;5280341;27;1121;-49
2024/04/17 04:29:02;;;;;;;;;;;;;;;15.63;49.40;99321.63;5303575;27;1206;-43
2024/04/17 04:31:28;;;;;;;;;;;;;;;15.58;48.52;99315.09;5306044;27;1319;-45
2024/04/17 04:33:53;;;;;;;;;;;;;;;15.45;48.24;99308.25;5296953;27;1828;-45
2024/04/17 04:36:18;;;;;;;;;;;;;;;15.35;48.17;99307.44;5314533;27;1253;-46
2024/04/17 04:38:44;;;;;;;;;;;;;;;15.59;48.85;99306.16;5308242;27;1294;-42
2024/04/17 04:41:10;;;;;;;;;;;;;;;15.99;49.58;99317.56;5303532;27;1220;-45
2024/04/17 04:43:35;;;;;;;;;;;;;;;15.62;48.99;99308.50;5301936;27;1505;-43
2024/04/17 04:46:01;;;;;;;;;;;;;;;15.53;48.35;99313.69;5296980;27;1248;-45
2024/04/17 04:48:27;;;;;;;;;;;;;;;15.46;47.58;99317.03;5301882;27;1471;-44
2024/04/17 04:50:52;;;;;;;;;;;;;;;16.35;49.37;99317.72;5303453;27;1274;-49
2024/04/17 04:53:18;;;;;;;;;;;;;;;15.87;49.41;99336.25;5273644;27;1834;-47
2024/04/17 04:55:53;;;;;;;;;;;;;;;15.65;48.42;99340.03;5303828;27;1228;-47
2024/04/17 04:58:19;;;;;;;;;;;;;;;15.50;47.90;99345.78;5307156;27;1490;-47
2024/04/17 05:00:44;;;;;;;;;;;;;;;15.42;47.40;99337.69;5301815;27;1341;-44
2024/04/17 05:03:10;;;;;;;;;;;;;;;15.45;46.78;99341.88;5311034;27;1236;-48
2024/04/17 05:05:35;;;;;;;;;;;;;;;16.51;48.92;99338.34;5313433;27;1402;-43
2024/04/17 05:08:01;;;;;;;;;;;;;;;15.84;48.97;99341.00;5307358;27;1326;-46
2024/04/17 05:10:26;;;;;;;;;;;;;;;15.64;48.31;99341.88;5283874;27;1419;-41
2024/04/17 05:12:52;;;;;;;;;;;;;;;15.53;47.56;99329.59;5284067;27;1826;-43
2024/04/17 05:15:17;;;;;;;;;;;;;;;16.53;48.35;99332.88;5284405;27;1521;-48
2024/04/17 05:17:43;;;;;;;;;;;;;;;15.89;48.78;99317.53;5286208;27;1541;-43
2024/04/17 05:20:08;;;;;;;;;;;;;;;15.72;47.92;99311.16;5287401;27;1418;-44
2024/04/17 05:22:34;;;;;;;;;;;;;;;15.58;47.48;99312.44;5293093;27;1481;-45
2024/04/17 05:24:59;;;;;;;;;;;;;;;16.52;48.88;99315.25;5302055;27;1343;-47
2024/04/17 05:27:25;;;;;;;;;;;;;;;15.94;49.05;99317.97;5295043;27;1414;-46
2024/04/17 05:29:50;;;;;;;;;;;;;;;15.75;48.40;99317.00;5317286;27;1117;-48
2024/04/17 05:32:16;;;;;;;;;;;;;;;15.76;47.43;99312.56;5312586;27;1839;-43
2024/04/17 05:34:41;;;;;;;;;;;;;;;15.65;46.66;99302.91;5316917;27;1189;-43
2024/04/17 05:37:07;;;;;;;;;;;;;;;15.52;46.92;99306.72;5317055;27;1591;-42
2024/04/17 05:39:32;;;;;;;;;;;;;;;15.50;46.64;99291.91;5290009;27;1307;-41
2024/04/17 05:41:58;;;;;;;;;;;;;;;15.52;45.88;99290.81;5283506;27;1176;-44
2024/04/17 05:44:23;;;;;;;;;;;;;;;15.38;46.06;99292.06;5306604;27;1178;-40
2024/04/17 05:46:49;;;;;;;;;;;;;;;16.46;47.77;99310.53;5283414;27;1283;-40
2024/04/17 05:49:14;;;;;;;;;;;;;;;16.27;48.41;99309.63;5283029;27;1185;-40
2024/04/17 05:51:40;;;;;;;;;;;;;;;15.77;48.26;99293.00;5297822;27;1868;-41
2024/04/17 05:54:05;;;;;;;;;;;;;;;15.71;47.69;99299.72;5294397;27;1276;-41
2024/04/17 05:56:31;;;;;;;;;;;;;;;15.62;47.14;99306.72;5311615;27;1125;-42
2024/04/17 05:58:56;;;;;;;;;;;;;;;16.43;48.32;99290.44;5309198;27;1312;-39
2024/04/17 06:01:22;;;;;;;;;;;;;;;15.96;48.31;99296.59;5301968;27;1367;-43
2024/04/17 06:03:47;;;;;;;;;;;;;;;15.81;47.74;99273.19;5283046;27;1279;-41
2024/04/17 06:06:13;;;;;;;;;;;;;;;15.68;47.12;99278.81;5282911;27;1304;-42
2024/04/17 06:08:38;;;;;;;;;;;;;;;15.48;47.03;99285.94;5283566;27;1295;-45
2024/04/17 06:11:05;;;;;;;;;;;;;;;15.61;46.39;99270.59;5297120;27;1125;-38
2024/04/17 06:13:30;;;;;;;;;;;;;;;15.58;46.13;99281.44;5293612;27;1830;-40
2024/04/17 06:15:56;;;;;;;;;;;;;;;15.66;46.66;99264.84;5302573;26;1287;-41
2024/04/17 06:18:21;;;;;;;;;;;;;;;16.37;47.66;99261.81;5305600;27;1253;-38
2024/04/17 06:20:47;;;;;;;;;;;;;;;15.80;47.97;99260.91;5291993;27;1391;-38
2024/04/17 06:23:12;;;;;;;;;;;;;;;15.77;47.48;99261.19;5285997;27;1205;-38
2024/04/17 06:25:40;;;;;;;;;;;;;;;15.63;46.94;99243.94;5302603;27;1347;-38
2024/04/17 06:28:06;;;;;;;;;;;;;;;15.62;46.60;99240.44;5282686;27;1225;-39
2024/04/17 06:30:32;;;;;;;;;;;;;;;15.59;46.31;99239.88;5295065;27;1383;-41
2024/04/17 06:32:57;;;;;;;;;;;;;;;15.49;46.03;99243.41;5308021;27;1830;-42
2024/04/17 06:35:22;;;;;;;;;;;;;;;15.51;45.61;99237.97;5316370;27;1185;-43
2024/04/17 06:37:48;;;;;;;;;;;;;;;16.45;46.44;99237.22;5294645;27;1252;-41
2024/04/17 06:40:13;;;;;;;;;;;;;;;15.78;47.39;99239.81;5302578;27;1160;-40
2024/04/17 06:42:39;;;;;;;;;;;;;;;15.59;47.29;99239.88;5284974;27;1130;-45
2024/04/17 06:45:06;;;;;;;;;;;;;;;15.59;46.56;99230.13;5308739;27;1256;-40
2024/04/17 06:47:31;;;;;;;;;;;;;;;15.54;46.01;99222.59;5290420;27;1260;-39
2024/04/17 06:49:58;;;;;;;;;;;;;;;15.43;46.23;99226.25;5282037;27;1165;-38
2024/04/17 06:52:23;;;;;;;;;;;;;;;16.44;47.20;99216.94;5307423;27;1865;-47
2024/04/17 06:54:49;;;;;;;;;;;;;;;15.81;47.78;99206.06;5302217;27;1286;-46
2024/04/17 06:57:14;;;;;;;;;;;;;;;15.75;47.05;99210.94;5289205;27;1213;-43
2024/04/17 06:59:40;;;;;;;;;;;;;;;15.55;46.97;99202.22;5302535;27;1298;-44
2024/04/17 07:02:05;;;;;;;;;;;;;;;15.55;46.37;99215.47;5276718;27;1174;-44
2024/04/17 07:04:32;;;;;;;;;;;;;;;15.80;47.01;99213.16;5302580;27;1706;-40
2024/04/17 07:06:57;;;;;;;;;;;;;;;16.19;48.05;99204.25;5303079;27;1182;-41
2024/04/17 07:09:23;;;;;;;;;;;;;;;15.72;48.14;99205.94;5289617;27;1173;-45
2024/04/17 07:11:48;;;;;;;;;;;;;;;15.65;48.59;99210.16;5292865;27;1851;-43
2024/04/17 07:14:14;;;;;;;;;;;;;;;15.56;48.24;99206.56;5315520;27;1283;-49
2024/04/17 07:16:39;;;;;;;;;;;;;;;15.45;48.17;99204.91;5290826;26;1255;-43
2024/04/17 07:19:05;;;;;;;;;;;;;;;15.51;47.48;99196.41;5282105;27;1177;-46
2024/04/17 07:21:30;;;;;;;;;;;;;;;15.59;46.96;99200.97;5298975;27;1250;-43
2024/04/17 07:23:56;;;;;;;;;;;;;;;16.57;48.83;99198.84;5310200;27;1224;-47
2024/04/17 07:26:22;;;;;;;;;;;;;;;16.03;49.19;99200.41;5291435;27;1395;-44
2024/04/17 07:28:47;;;;;;;;;;;;;;;15.78;48.47;99205.34;5295008;27;1306;-40
2024/04/17 07:31:13;;;;;;;;;;;;;;;15.71;47.88;99206.94;5290059;27;1184;-43
2024/04/17 07:33:38;;;;;;;;;;;;;;;15.63;47.22;99207.63;5286650;27;1855;-45
2024/04/17 07:36:04;;;;;;;;;;;;;;;15.71;46.68;99209.59;5304018;27;1150;-42
2024/04/17 07:38:30;;;;;;;;;;;;;;;15.74;47.37;99217.25;5283363;27;1271;-43
2024/04/17 07:40:56;;;;;;;;;;;;;;;16.26;48.61;99215.09;5305886;27;1399;-49
2024/04/17 07:43:22;;;;;;;;;;;;;;;15.87;48.17;99208.97;5307346;27;1455;-44
2024/04/17 07:45:51;;;;;;;;;;;;;;;15.86;47.49;99212.59;5302200;27;1564;-48
2024/04/17 07:48:16;;;;;;;;;;;;;;;15.68;47.12;99212.53;5295536;27;1322;-47
2024/04/17 07:50:42;;;;;;;;;;;;;;;15.73;46.77;99202.31;5304310;27;1546;-47
2024/04/17 07:53:07;;;;;;;;;;;;;;;15.55;46.55;99205.72;5282295;27;1822;-47
2024/04/17 07:55:34;;;;;;;;;;;;;;;15.55;46.41;99200.41;5289734;27;1315;-46
2024/04/17 07:57:59;;;;;;;;;;;;;;;15.57;46.33;99197.63;5293713;27;1284;-45
2024/04/17 08:00:25;;;;;;;;;;;;;;;15.51;46.33;99198.19;5284941;27;1473;-44
2024/04/17 08:02:50;;;;;;;;;;;;;;;15.51;46.21;99206.16;5286272;27;1213;-44
2024/04/17 08:05:16;;;;;;;;;;;;;;;15.52;46.04;99197.22;5315343;27;1209;-46
2024/04/17 08:07:42;;;;;;;;;;;;;;;15.50;45.53;99196.50;5310875;27;1271;-46
2024/04/17 08:10:07;;;;;;;;;;;;;;;15.52;45.75;99199.84;5301825;27;1268;-47
2024/04/17 08:12:36;;;;;;;;;;;;;;;15.46;46.04;99195.13;5304246;27;1826;-42
2024/04/17 08:15:01;;;;;;;;;;;;;;;15.41;45.76;99199.03;5315017;27;1153;-45
2024/04/17 08:17:27;;;;;;;;;;;;;;;15.94;46.94;99198.59;5311633;27;1302;-44
2024/04/17 08:19:52;;;;;;;;;;;;;;;16.22;47.67;99192.50;5316130;27;1288;-48
2024/04/17 08:22:18;;;;;;;;;;;;;;;15.78;48.00;99181.50;5283313;27;1224;-48
2024/04/17 08:24:43;;;;;;;;;;;;;;;15.64;47.46;99185.47;5297294;27;1275;-44
2024/04/17 08:27:09;;;;;;;;;;;;;;;15.63;47.07;99175.81;5285741;27;1416;-44
2024/04/17 08:29:35;;;;;;;;;;;;;;;15.59;46.79;99179.75;5284426;27;1181;-44
2024/04/17 08:32:00;;;;;;;;;;;;;;;15.58;46.55;99187.84;5309271;27;1951;-43
2024/04/17 08:34:26;;;;;;;;;;;;;;;15.54;46.22;99185.50;5309250;27;1446;-43
2024/04/17 08:36:51;;;;;;;;;;;;;;;15.41;46.36;99184.97;5302711;27;1180;-42
2024/04/17 08:39:17;;;;;;;;;;;;;;;15.46;46.04;99181.88;5308473;27;1149;-42
2024/04/17 08:41:46;;;;;;;;;;;;;;;15.42;46.14;99168.94;5284080;27;1276;-43
2024/04/17 08:44:13;;;;;;;;;;;;;;;15.41;46.21;99182.31;5276753;27;1323;-41
2024/04/17 08:46:38;;;;;;;;;;;;;;;16.16;47.30;99170.06;5283950;27;1044;-42
2024/04/17 08:49:04;;;;;;;;;;;;;;;15.83;47.62;99164.31;5287314;27;1196;-44
2024/04/17 08:51:29;;;;;;;;;;;;;;;15.60;47.32;99167.34;5273456;27;1169;-42
2024/04/17 08:53:56;;;;;;;;;;;;;;;15.54;47.07;99163.44;5279557;27;1825;-42
2024/04/17 08:56:22;;;;;;;;;;;;;;;15.57;46.48;99162.31;5307596;27;1474;-42
2024/04/17 08:58:47;;;;;;;;;;;;;;;15.55;46.28;99155.34;5287576;27;1272;-45
2024/04/17 09:01:13;;;;;;;;;;;;;;;16.48;47.20;99165.25;5260565;27;1304;-44
2024/04/17 09:03:39;;;;;;;;;;;;;;;15.89;47.86;99164.56;5270411;27;1360;-40
2024/04/17 09:06:05;;;;;;;;;;;;;;;15.77;47.28;99141.88;5289737;27;1361;-40
2024/04/17 09:08:30;;;;;;;;;;;;;;;15.72;47.01;99157.38;5256766;27;1356;-41
2024/04/17 09:10:56;;;;;;;;;;;;;;;15.67;46.95;99152.53;5304302;27;1231;-46
2024/04/17 09:13:21;;;;;;;;;;;;;;;16.23;47.88;99149.06;5289460;27;1862;-40
2024/04/17 09:15:47;;;;;;;;;;;;;;;15.85;47.86;99144.63;5253881;27;1127;-43
2024/04/17 09:18:13;;;;;;;;;;;;;;;15.72;47.55;99136.16;5283587;27;1138;-43
2024/04/17 09:20:38;;;;;;;;;;;;;;;15.64;47.28;99124.50;5304598;27;1343;-44
2024/04/17 09:23:10;;;;;;;;;;;;;;;15.70;46.77;99106.34;5290638;27;1201;-41
2024/04/17 09:25:36;;;;;;;;;;;;;;;15.56;46.97;99097.88;5303348;27;1239;-44
2024/04/17 09:28:01;;;;;;;;;;;;;;;15.60;46.56;99109.03;5308703;27;1298;-44
2024/04/17 09:30:27;;;;;;;;;;;;;;;15.53;46.59;99103.50;5302325;27;1260;-42
2024/04/17 09:32:52;;;;;;;;;;;;;;;15.65;46.06;99110.25;5282979;27;1881;-41
2024/04/17 09:35:18;;;;;;;;;;;;;;;15.51;46.14;99108.94;5301926;27;1199;-40
2024/04/17 09:37:43;;;;;;;;;;;;;;;15.55;45.88;99115.59;5305818;27;1307;-45
2024/04/17 09:40:10;;;;;;;;;;;;;;;15.49;46.16;99112.69;5312270;27;1394;-41
2024/04/17 09:42:37;;;;;;;;;;;;;;;15.47;46.22;99102.25;5311996;27;1262;-43
2024/04/17 09:45:03;;;;;;;;;;;;;;;16.45;47.40;99099.19;5315233;27;1245;-41
2024/04/17 09:47:28;;;;;;;;;;;;;;;15.95;47.54;99096.84;5296320;27;1240;-44
2024/04/17 09:49:54;;;;;;;;;;;;;;;15.76;47.39;99098.63;5305888;27;1281;-41
2024/04/17 09:52:20;;;;;;;;;;;;;;;15.73;46.99;99103.41;5283038;27;1866;-43
2024/04/17 09:54:45;;;;;;;;;;;;;;;15.67;46.74;99099.50;5275617;27;1145;-41
2024/04/17 09:57:11;;;;;;;;;;;;;;;15.67;46.46;99088.91;5304566;27;1260;-43
2024/04/17 09:59:37;;;;;;;;;;;;;;;15.54;46.51;99089.25;5294112;27;1204;-42
2024/04/17 10:02:03;;;;;;;;;;;;;;;15.59;46.26;99083.50;5253462;27;1186;-44
2024/04/17 10:04:29;;;;;;;;;;;;;;;15.69;45.92;99089.59;5293529;27;1189;-40
2024/04/17 10:06:55;;;;;;;;;;;;;;;15.57;46.08;99088.09;5316821;27;1153;-43
2024/04/17 10:09:21;;;;;;;;;;;;;;;15.51;46.02;99098.34;5307173;27;1287;-46
2024/04/17 10:11:50;;;;;;;;;;;;;;;15.50;46.02;99087.84;5304711;27;1876;-44
2024/04/17 10:14:16;;;;;;;;;;;;;;;15.52;46.06;99094.69;5293578;27;1279;-44
2024/04/17 10:16:42;;;;;;;;;;;;;;;16.23;47.15;99101.31;5316547;27;1184;-41
2024/04/17 10:19:08;;;;;;;;;;;;;;;16.22;47.93;99112.91;5263635;27;1136;-42
2024/04/17 10:21:36;;;;;;;;;;;;;;;15.93;47.73;99113.91;5316596;27;1168;-40
2024/04/17 10:24:02;;;;;;;;;;;;;;;15.79;47.53;99108.09;5302945;27;1355;-42
2024/04/17 10:26:44;;;;;;;;;;;;;;;15.73;47.17;99109.50;5283701;27;1229;-44
2024/04/17 10:29:22;;;;;;;;;;;;;;;15.62;47.12;99118.50;5304214;27;1423;-45
2024/04/17 10:32:00;;;;;;;;;;;;;;;15.67;46.64;99118.06;5297101;27;1869;-43
2024/04/17 10:34:26;;;;;;;;;;;;;;;15.60;46.54;99125.75;5304728;27;1169;-44
2024/04/17 10:36:53;;;;;;;;;;;;;;;15.63;46.17;99116.69;5305590;27;1208;-40
2024/04/17 10:39:19;;;;;;;;;;;;;;;15.58;46.29;99122.41;5305331;27;1266;-40
2024/04/17 10:41:46;;;;;;;;;;;;;;;15.60;46.28;99130.25;5292736;27;1466;-48
2024/04/17 10:44:11;;;;;;;;;;;;;;;15.64;46.07;99121.84;5282999;27;1265;-44
2024/04/17 10:46:37;;;;;;;;;;;;;;;15.56;46.32;99119.09;5282194;27;1510;-43
2024/04/17 10:49:02;;;;;;;;;;;;;;;15.51;45.94;99118.69;5304689;27;1283;-48
2024/04/17 10:51:28;;;;;;;;;;;;;;;16.43;46.84;99119.75;5283282;27;1453;-49
2024/04/17 10:53:53;;;;;;;;;;;;;;;15.87;47.46;99117.97;5282592;27;1837;-46
2024/04/17 10:56:19;;;;;;;;;;;;;;;15.78;47.19;99109.91;5274866;27;1419;-45
2024/04/17 10:58:44;;;;;;;;;;;;;;;15.82;46.66;99110.44;5298327;27;1363;-42
2024/04/17 11:01:12;;;;;;;;;;;;;;;15.71;46.54;99113.31;5282854;27;1384;-41
2024/04/17 11:03:38;;;;;;;;;;;;;;;15.76;46.26;99101.28;5263029;27;1434;-42
2024/04/17 11:06:04;;;;;;;;;;;;;;;15.59;46.67;99087.00;5316274;27;1177;-46
2024/04/17 11:08:30;;;;;;;;;;;;;;;15.57;46.20;99091.59;5283124;27;1418;-43
2024/04/17 11:10:55;;;;;;;;;;;;;;;15.65;45.95;99081.09;5300465;27;1356;-43
2024/04/17 11:13:21;;;;;;;;;;;;;;;15.61;46.06;99074.44;5252350;27;1825;-44
2024/04/17 11:15:47;;;;;;;;;;;;;;;15.71;46.05;99081.50;5302500;27;1301;-40
2024/04/17 11:18:12;;;;;;;;;;;;;;;15.69;46.22;99072.84;5296188;27;1184;-45
2024/04/17 11:20:38;;;;;;;;;;;;;;;16.39;47.44;99084.69;5290735;27;1298;-41
2024/04/17 11:23:07;;;;;;;;;;;;;;;16.28;48.04;99069.84;5305334;27;1351;-41
2024/04/17 11:25:35;;;;;;;;;;;;;;;15.97;48.06;99063.06;5290215;27;1354;-41
2024/04/17 11:28:00;;;;;;;;;;;;;;;15.88;47.60;99063.97;5281990;27;1169;-43
2024/04/17 11:30:26;;;;;;;;;;;;;;;15.78;47.26;99045.47;5284137;27;1125;-40
2024/04/17 11:32:51;;;;;;;;;;;;;;;15.83;46.88;99037.06;5316028;27;1861;-44
2024/04/17 11:35:17;;;;;;;;;;;;;;;15.81;46.73;99037.22;5292473;26;1197;-45
2024/04/17 11:37:49;;;;;;;;;;;;;;;15.77;46.70;99018.09;5283627;27;1292;-41
2024/04/17 11:40:15;;;;;;;;;;;;;;;15.70;46.42;99017.03;5311545;27;1406;-40
2024/04/17 11:42:40;;;;;;;;;;;;;;;15.70;46.54;99013.56;5301536;27;1157;-42
2024/04/17 11:45:08;;;;;;;;;;;;;;;15.71;45.97;99010.75;5313175;27;1235;-43
2024/04/17 11:47:33;;;;;;;;;;;;;;;16.43;47.32;99019.72;5284369;27;1134;-42
2024/04/17 11:49:59;;;;;;;;;;;;;;;16.03;47.74;99008.63;5303818;27;1209;-41
2024/04/17 11:52:24;;;;;;;;;;;;;;;15.90;47.33;99008.94;5311643;27;1859;-44
2024/04/17 11:54:50;;;;;;;;;;;;;;;15.81;47.03;98991.28;5313751;27;1253;-45
2024/04/17 11:57:15;;;;;;;;;;;;;;;15.81;46.87;98992.13;5305938;27;1297;-40
2024/04/17 11:59:41;;;;;;;;;;;;;;;15.84;46.57;98985.69;5297152;27;1322;-41
2024/04/17 12:02:06;;;;;;;;;;;;;;;16.20;47.13;98995.50;5302671;27;1157;-48
2024/04/17 12:04:32;;;;;;;;;;;;;;;16.05;46.86;99003.97;5286666;27;1517;-45
2024/04/17 12:06:58;;;;;;;;;;;;;;;15.93;46.78;99003.34;5303975;27;1288;-44
2024/04/17 12:09:23;;;;;;;;;;;;;;;15.92;46.41;99012.28;5281501;27;1240;-39
2024/04/17 12:11:49;;;;;;;;;;;;;;;15.79;46.41;98999.41;5299565;27;1866;-43
2024/04/17 12:14:14;;;;;;;;;;;;;;;15.76;46.28;98976.69;5297133;27;1292;-42
2024/04/17 12:16:40;;;;;;;;;;;;;;;15.72;46.08;98974.47;5310362;26;1138;-42
2024/04/17 12:19:06;;;;;;;;;;;;;;;15.79;45.90;98986.97;5281145;27;1248;-41
2024/04/17 12:21:31;;;;;;;;;;;;;;;16.42;47.41;98993.31;5294494;27;1461;-42
2024/04/17 12:24:00;;;;;;;;;;;;;;;16.00;47.59;98991.16;5299108;27;1537;-40
2024/04/17 12:29:10;;;;;;;;;;;;;;;15.89;46.64;98964.84;5303254;27;1213;-46
2024/04/17 12:31:35;;;;;;;;;;;;;;;15.77;46.65;98973.03;5309841;27;1216;-42
2024/04/17 12:34:00;;;;;;;;;;;;;;;15.85;46.30;98969.63;5305185;27;1837;-41
2024/04/17 12:36:26;;;;;;;;;;;;;;;15.78;46.12;98972.03;5298970;27;1160;-41
2024/04/17 12:38:51;;;;;;;;;;;;;;;15.81;46.04;98954.16;5298518;27;1169;-42
2024/04/17 12:41:17;;;;;;;;;;;;;;;15.72;46.04;98967.34;5283904;27;1348;-44
2024/04/17 12:43:42;;;;;;;;;;;;;;;15.74;46.07;98943.34;5296821;27;1407;-47
2024/04/17 12:46:08;;;;;;;;;;;;;;;15.71;45.75;98946.28;5250886;27;1272;-44
2024/04/17 12:48:34;;;;;;;;;;;;;;;15.73;45.84;98937.19;5296089;27;1193;-46
2024/04/17 12:50:59;;;;;;;;;;;;;;;15.65;45.75;98932.66;5302092;27;1358;-43
2024/04/17 12:53:24;;;;;;;;;;;;;;;15.74;45.55;98938.88;5303219;27;1818;-43